Coxsackie, NY

3:24 PM EDT on August 21, 2019 (GMT -0400)
Link's (Summerset Rd.) Weather Station | | Change Station
Active Advisory: Severe Thunderstorm Watch

Elev 134 ft 42.40 °N, 73.77 °W | Updated 43 seconds ago

Mostly Cloudy
Mostly Cloudy
86.9 °F
Feels Like 97 °F
N
2
Wind Variable Wind from SSE
Gusts 14.1 mph

Today
High -- | Low -- °F
--% Chance of Precip.
Yesterday
High -- | Low -- °F
Precip. -- in
Pressure 29.81 in
Visibility 10.0 miles
Clouds Few 2000 ft
Few 3600 ft
Scattered Clouds 9000 ft
Heat Index 97 °F
Dew Point 76 °F
Humidity 69%
Rainfall 0.27 in
Snow Depth Not available.
6:08 AM 7:47 PM
Waning Gibbous, 68% visible
METAR KPSF 211854Z AUTO 18013G18KT 10SM FEW020 FEW036 SCT090 27/21 A2988 RMK AO2 SLP092 T02670211
Pressure 29.81 in
Visibility 10.0 miles
Clouds Few 2000 ft
Few 3600 ft
Scattered Clouds 9000 ft
Heat Index 97 °F
Dew Point 76 °F
Humidity 69%
Rainfall 0.27 in
Snow Depth Not available.
6:08 AM 7:47 PM
Waning Gibbous, 68% visible
METAR KPSF 211854Z AUTO 18013G18KT 10SM FEW020 FEW036 SCT090 27/21 A2988 RMK AO2 SLP092 T02670211

Get Your Daily Forecast Email!

Thanks for signing up!

Be on the lookout for a verification email in your inbox.

You'll start receiving severe weather alerts in your inbox..

×

10-Day Weather Forecast

Almanac

Astronomy

Aug. 21, 2019 Rise Set
Actual Time
Civil Twilight
Nautical Twilight
Astronomical Twilight
Moon
Length of Visible Light
Length of Day
Tomorrow will be .
, % of the Moon is Illuminated

Today's Extremes

State Highs State Lows

Community

WunderPhotos

Category 6

Welcome to Category 6. This is the collective home for Weather Underground's featured writeups by Dr. Jeff Masters (right), Bob Henson (left), Chris Burt, and other regular contributors.

Nearby

Air Quality

  Air Quality AQ Index Pollutant
Not available.

Snow Depth

Station Depth Elevation

Earthquake Activity

City Distance Mag. Time & Date
Minimum magnitude displayed is 2.5.

Coastal Water Temperatures

Place Temperature

Stations

Nearby Weather Stations

Station Location Temp. Windchill Dew Point Humidity Wind Precip. Elev Updated Type
                   

Watches & Warnings

Severe Thunderstorm Watch
Issued: 3:13 PM EDT Aug. 21, 2019 – National Weather Service

Severe Thunderstorm Watch 609 remains in effect until 900 PM EDT

NY
. New York counties included are

Albany Bronx Columbia
Dutchess Fulton Greene
Kings Montgomery Nassau
New York Orange Putnam
Queens Rensselaer Richmond
Rockland Saratoga Schenectady
Schoharie Suffolk Ulster
Washington Westchester